Bloomington, IN (47403)

9:29 PM EST on January 22, 2017 (GMT -0500)
Eagleview | | Change Station
Active Advisory: Flood Warning

Elev 738 ft 39.12 °N, 86.55 °W | Updated 2 minutes ago

Overcast
Overcast
55.9 °F
Feels Like 55.9 °F
N
4.9
Wind Variable Wind from NW
Gusts 15.0 mph

Today
High -- | Low -- °F
--% Chance of Precip.
Yesterday
High -- | Low -- °F
Precip. -- in
Pressure 29.49 in
Visibility 10.0 miles
Clouds Few 7500 ft
Scattered Clouds 9500 ft
Overcast 11000 ft
Dew Point 52 °F
Humidity 88%
Rainfall 0.00 in
Snow Depth Not available.
8:00 AM 5:56 PM
Waning Crescent, 22% visible
METAR KBMG 230153Z 01011KT 10SM FEW075 SCT095 OVC110 13/10 A2949 RMK AO2 RAB18E28 SLP986 P0000 T01330100
Pressure 29.49 in
Visibility 10.0 miles
Clouds Few 7500 ft
Scattered Clouds 9500 ft
Overcast 11000 ft
Dew Point 52 °F
Humidity 88%
Rainfall 0.00 in
Snow Depth Not available.
8:00 AM 5:56 PM
Waning Crescent, 22% visible
METAR KBMG 230153Z 01011KT 10SM FEW075 SCT095 OVC110 13/10 A2949 RMK AO2 RAB18E28 SLP986 P0000 T01330100

Get Your Daily Forecast Email!

Thanks for signing up!

Be on the lookout for a verification email in your inbox.

You'll start receiving the daily forecast at 8 AM.

×

10-Day Weather Forecast

Almanac

Astronomy

Jan. 22, 2017 Rise Set
Actual Time
Civil Twilight
Nautical Twilight
Astronomical Twilight
Moon
Length of Visible Light
Length of Day
Tomorrow will be .
, % of the Moon is Illuminated

Today's Extremes

State Highs State Lows

Community

WunderPhotos

Upload Photos

1,962,540 photos uploaded!

WunderBlog® & News

Nearby

Air Quality

  Air Quality AQ Index Pollutant
Not available.

Snow Depth

Station Depth Elevation

Earthquake Activity

City Distance Mag. Time & Date
Minimum magnitude displayed is 2.5.

Coastal Water Temperatures

Place Temperature

Stations

Nearby Weather Stations

Station Location Temp. Windchill Dew Point Humidity Wind Precip. Elev Updated Type
                   

Watches & Warnings

Flood Warning
Issued: 10:44 AM EST Jan. 22, 2017 – National Weather Service

The Flood Warning continues for
the White River at Spencer.
* Until Wednesday evening.
* At 9:30 am Sunday the stage was 16.9 feet.
* Flood stage is 14.0 feet.
* Minor flooding is occurring and minor flooding is forecast.
* Forecast... the river will continue rising to near 16.9 feet by this
afternoon. The river will fall below flood stage Wednesday morning.
* At 17.0 feet... a few Mobile homes located downstream of Spencer are
isolated because their driveway lanes flood. County line Road on
north side of river has one foot of water and begins to flood in a
second place. Spencer public access extensively floods. North
moon Road in very rural northwest Monroe County is flooded by the
White River.


Lat... Lon 3936 8666 3933 8674 3913 8696 3911 8692
      3928 8675 3934 8665